createdAt,value
2022-08-05T00:00:18.353Z,95852.56
2022-08-05T00:02:51.057Z,95833.41
2022-08-05T00:06:03.069Z,95819.31
2022-08-05T00:08:32.769Z,95832.03
2022-08-05T00:11:00.936Z,95810.59
2022-08-05T00:13:38.788Z,95756.75
2022-08-05T00:16:12.787Z,95720.03
2022-08-05T00:18:42.446Z,95708.00
2022-08-05T00:21:14.420Z,95698.56
2022-08-05T00:23:46.028Z,95681.16
2022-08-05T00:26:14.979Z,95637.84
2022-08-05T00:28:45.711Z,95594.09
2022-08-05T00:31:13.723Z,95558.81
2022-08-05T00:34:53.954Z,95577.38
2022-08-05T00:37:11.941Z,95645.66
2022-08-05T00:39:15.357Z,95662.38
2022-08-05T00:41:55.084Z,95649.03
2022-08-05T00:44:30.636Z,95646.69
2022-08-05T00:47:02.096Z,95661.34
2022-08-05T00:49:44.403Z,95650.59
2022-08-05T00:52:28.110Z,95658.53
2022-08-05T00:54:56.242Z,95635.16
2022-08-05T00:57:25.428Z,95635.75
2022-08-05T01:00:07.136Z,95641.16
2022-08-05T01:02:38.390Z,95641.47
2022-08-05T01:05:10.116Z,95660.53
2022-08-05T01:07:37.524Z,95658.59
2022-08-05T01:10:31.005Z,95659.50
2022-08-05T01:13:17.016Z,95666.78
2022-08-05T01:15:56.841Z,95658.38
2022-08-05T01:18:31.273Z,95648.75
2022-08-05T01:21:22.826Z,95675.44
2022-08-05T01:24:14.173Z,95688.31
2022-08-05T01:27:19.305Z,95695.78
2022-08-05T01:29:50.220Z,95707.59
2022-08-05T01:32:22.491Z,95700.94
2022-08-05T01:35:00.641Z,95705.34
2022-08-05T01:37:36.600Z,95716.66
2022-08-05T01:40:12.616Z,95733.06
2022-08-05T01:42:42.496Z,95751.00
2022-08-05T01:45:11.220Z,95728.38
2022-08-05T01:47:43.197Z,95704.41
2022-08-05T01:50:50.985Z,95672.81
2022-08-05T01:53:55.139Z,95723.38
2022-08-05T01:56:14.064Z,95741.09
2022-08-05T01:59:04.808Z,95710.91
2022-08-05T02:01:40.149Z,95651.06
2022-08-05T02:04:10.362Z,95616.75
2022-08-05T02:06:39.338Z,95698.50
2022-08-05T02:09:07.271Z,95751.34
2022-08-05T02:11:47.748Z,95769.06
2022-08-05T02:14:51.882Z,95835.69
2022-08-05T02:18:28.193Z,95838.91
2022-08-05T02:20:23.175Z,95872.59
2022-08-05T02:22:58.295Z,95891.41
2022-08-05T02:25:33.236Z,95914.22
2022-08-05T02:28:08.639Z,95930.28
2022-08-05T02:30:54.208Z,95976.31
2022-08-05T02:33:24.345Z,96008.72
2022-08-05T02:36:05.140Z,96020.63
2022-08-05T02:38:35.284Z,96015.63
2022-08-05T02:41:14.476Z,96031.97
2022-08-05T02:44:06.468Z,96035.66
2022-08-05T02:46:33.650Z,96049.88
2022-08-05T02:49:02.581Z,96058.81
2022-08-05T02:52:04.508Z,96061.22
2022-08-05T02:54:34.926Z,96065.94
2022-08-05T02:58:08.540Z,96031.75
2022-08-05T02:59:55.501Z,96010.03
2022-08-05T03:02:31.530Z,95990.38
2022-08-05T03:05:01.031Z,95942.41
2022-08-05T03:08:00.435Z,95886.56
2022-08-05T03:10:24.386Z,95880.94
2022-08-05T03:12:53.946Z,95878.34
2022-08-05T03:15:23.586Z,95868.50
2022-08-05T03:17:55.665Z,95857.28
2022-08-05T03:20:24.419Z,95854.16
2022-08-05T03:22:53.196Z,95840.44
2022-08-05T03:25:33.821Z,95880.88
2022-08-05T03:28:13.996Z,95881.84
2022-08-05T03:30:42.566Z,95888.72
2022-08-05T03:33:10.545Z,95899.78
2022-08-05T03:35:41.636Z,95939.09
2022-08-05T03:38:14.544Z,95947.94
2022-08-05T03:40:47.314Z,95961.75
2022-08-05T03:44:08.815Z,95974.03
2022-08-05T03:46:04.819Z,95974.97
2022-08-05T03:48:35.137Z,95975.69
2022-08-05T03:52:38.144Z,95972.88
2022-08-05T03:55:49.853Z,95968.47
2022-08-05T03:57:16.598Z,95916.38
2022-08-05T03:59:54.727Z,95871.38
2022-08-05T04:02:38.615Z,95898.09
2022-08-05T04:05:13.921Z,95925.03
2022-08-05T04:07:57.746Z,95933.84
2022-08-05T04:10:30.898Z,95898.97
2022-08-05T04:13:03.403Z,95896.88
2022-08-05T04:15:32.994Z,95890.22
2022-08-05T04:18:07.360Z,95884.19
2022-08-05T04:20:36.694Z,95888.09
2022-08-05T04:23:04.005Z,95894.66
2022-08-05T04:25:56.472Z,95924.75
2022-08-05T04:28:20.801Z,95909.78
2022-08-05T04:31:01.157Z,95930.13
2022-08-05T04:33:54.805Z,95929.69
2022-08-05T04:36:45.388Z,95948.47
2022-08-05T04:39:03.683Z,95938.44
2022-08-05T04:41:37.701Z,95930.69
2022-08-05T04:44:09.266Z,95948.66
2022-08-05T04:46:38.390Z,95949.94
2022-08-05T04:49:12.197Z,95941.22
2022-08-05T04:51:44.946Z,95928.59
2022-08-05T04:54:12.418Z,95911.88
2022-08-05T04:56:39.590Z,95888.75
2022-08-05T04:59:21.997Z,95881.66
2022-08-05T05:02:08.306Z,95849.25
2022-08-05T05:04:44.128Z,95831.22
2022-08-05T05:07:17.600Z,95837.59
2022-08-05T05:09:45.296Z,95830.47
2022-08-05T05:12:12.566Z,95817.41
2022-08-05T05:14:49.369Z,95815.22
2022-08-05T05:17:23.441Z,95812.81
2022-08-05T05:19:54.320Z,95825.56
2022-08-05T05:22:23.525Z,95819.81
2022-08-05T05:24:58.063Z,95820.66
2022-08-05T05:27:45.888Z,95815.56
2022-08-05T05:30:30.542Z,95816.72
2022-08-05T05:33:14.123Z,95791.25
2022-08-05T05:35:48.371Z,95776.13
2022-08-05T05:38:22.943Z,95773.66
2022-08-05T05:40:55.712Z,95773.22
2022-08-05T05:43:54.008Z,95769.00
2022-08-05T05:46:16.156Z,95782.28
2022-08-05T05:48:48.389Z,95815.06
2022-08-05T05:51:23.584Z,95842.00
2022-08-05T05:53:57.409Z,95871.31
2022-08-05T05:56:32.781Z,95866.22
2022-08-05T05:59:06.631Z,95880.38
2022-08-05T06:01:37.540Z,95895.78
2022-08-05T06:04:12.798Z,95898.31
2022-08-05T06:06:42.750Z,95904.88
2022-08-05T06:09:17.593Z,95908.44
2022-08-05T06:11:59.075Z,95916.25
2022-08-05T06:14:29.143Z,95923.53
2022-08-05T06:16:56.841Z,95929.25
2022-08-05T06:19:34.166Z,95941.63
2022-08-05T06:22:04.331Z,95927.16
2022-08-05T06:24:41.048Z,95913.28
2022-08-05T06:28:08.723Z,95914.34
2022-08-05T06:30:17.913Z,95925.88
2022-08-05T06:32:47.348Z,95923.16
2022-08-05T06:35:15.620Z,95929.25
2022-08-05T06:38:08.324Z,95916.06
2022-08-05T06:40:42.164Z,95933.06
2022-08-05T06:43:58.933Z,95938.72
2022-08-05T06:46:06.931Z,95946.63
2022-08-05T06:48:52.945Z,95943.00
2022-08-05T06:51:30.161Z,95936.03
2022-08-05T06:54:02.769Z,95943.53
2022-08-05T06:56:34.237Z,95945.16
2022-08-05T06:59:03.691Z,95942.88
2022-08-05T07:01:37.098Z,95954.81
2022-08-05T07:04:08.080Z,95951.28
2022-08-05T07:06:35.176Z,95977.00
2022-08-05T07:09:04.387Z,95975.91
2022-08-05T07:11:36.940Z,95979.09
2022-08-05T07:14:29.661Z,95971.88
2022-08-05T07:17:58.677Z,95959.59
2022-08-05T07:22:41.980Z,95977.72
2022-08-05T07:25:54.165Z,95981.41
2022-08-05T07:28:03.869Z,95973.38
2022-08-05T07:30:38.799Z,95959.19
2022-08-05T07:33:10.581Z,95953.75
2022-08-05T07:36:01.484Z,95960.97
2022-08-05T07:38:33.803Z,95954.97
2022-08-05T07:41:35.151Z,95974.56
2022-08-05T07:43:56.912Z,95979.53
2022-08-05T07:46:30.480Z,95989.97
2022-08-05T07:49:04.970Z,96006.94
2022-08-05T07:51:37.452Z,96021.69
2022-08-05T07:54:10.038Z,96023.22
2022-08-05T07:57:00.032Z,96015.50
2022-08-05T07:59:38.608Z,96017.84
2022-08-05T08:02:16.660Z,96008.13
2022-08-05T08:04:49.411Z,95960.13
2022-08-05T08:07:18.379Z,95943.97
2022-08-05T08:09:52.326Z,95964.41
2022-08-05T08:12:37.054Z,95990.25
2022-08-05T08:15:13.991Z,95978.03
2022-08-05T08:17:52.698Z,95983.53
2022-08-05T08:21:00.206Z,95981.41
2022-08-05T08:24:01.379Z,95981.50
2022-08-05T08:26:02.712Z,95971.88
2022-08-05T08:28:36.083Z,95986.00
2022-08-05T08:31:07.924Z,95985.75
2022-08-05T08:33:36.141Z,95993.31
2022-08-05T08:36:39.284Z,96011.47
2022-08-05T08:38:56.812Z,95983.94
2022-08-05T08:41:50.655Z,95985.81
2022-08-05T08:45:22.938Z,95993.41
2022-08-05T08:47:48.137Z,96007.06
2022-08-05T08:50:06.104Z,96019.53
2022-08-05T08:52:53.516Z,96012.16
2022-08-05T08:56:02.462Z,96009.09
2022-08-05T08:58:10.110Z,95998.16
2022-08-05T09:00:42.171Z,96003.44
2022-08-05T09:03:11.258Z,96011.47
2022-08-05T09:06:07.746Z,96011.81
2022-08-05T09:08:26.577Z,96020.56
2022-08-05T09:10:58.171Z,96035.41
2022-08-05T09:13:31.503Z,96050.19
2022-08-05T09:15:59.525Z,96062.44
2022-08-05T09:18:27.036Z,96054.84
2022-08-05T09:20:54.431Z,96048.00
2022-08-05T09:23:23.540Z,96038.53
2022-08-05T09:26:20.507Z,96067.75
2022-08-05T09:28:49.382Z,96066.50
2022-08-05T09:31:43.939Z,96061.53
2022-08-05T09:34:06.684Z,96062.19
2022-08-05T09:36:45.758Z,96085.09
2022-08-05T09:39:41.167Z,96093.28
2022-08-05T09:42:23.683Z,96088.91
2022-08-05T09:44:57.173Z,96085.53
2022-08-05T09:47:48.061Z,96076.16
2022-08-05T09:50:38.599Z,96084.31
2022-08-05T09:53:09.083Z,96088.72
2022-08-05T09:55:58.237Z,96071.63
2022-08-05T09:58:28.239Z,96080.66
2022-08-05T10:01:14.982Z,96061.13
2022-08-05T10:04:00.131Z,96077.50
2022-08-05T10:06:28.337Z,96091.13
2022-08-05T10:08:56.653Z,96066.53
2022-08-05T10:11:24.030Z,96064.19
2022-08-05T10:13:58.540Z,96047.75
2022-08-05T10:16:41.686Z,96041.63
2022-08-05T10:19:23.502Z,96046.63
2022-08-05T10:21:59.373Z,96053.47
2022-08-05T10:24:28.635Z,96065.28
2022-08-05T10:27:00.258Z,96063.06
2022-08-05T10:30:07.194Z,96062.78
2022-08-05T10:32:54.654Z,96066.72
2022-08-05T10:35:07.139Z,96065.28
2022-08-05T10:37:37.246Z,96073.06
2022-08-05T10:40:19.529Z,96079.31
2022-08-05T10:42:52.339Z,96068.69
2022-08-05T10:45:40.460Z,96075.25
2022-08-05T10:48:57.241Z,96077.75
2022-08-05T10:51:28.869Z,96084.25
2022-08-05T10:54:17.062Z,96081.75
2022-08-05T10:56:52.822Z,96077.03
2022-08-05T11:00:02.102Z,96085.78
2022-08-05T11:02:37.570Z,96083.00
2022-08-05T11:05:06.099Z,96079.00
2022-08-05T11:08:01.436Z,96082.09
2022-08-05T11:10:27.468Z,96071.66
2022-08-05T11:12:57.894Z,96089.22
2022-08-05T11:16:00.276Z,96083.59
2022-08-05T11:18:32.523Z,96076.03
2022-08-05T11:21:02.884Z,96083.66
2022-08-05T11:24:04.560Z,96093.59
2022-08-05T11:26:38.485Z,96081.47
2022-08-05T11:29:13.080Z,96096.69
2022-08-05T11:31:58.790Z,96083.59
2022-08-05T11:34:37.528Z,96095.44
2022-08-05T11:37:06.270Z,96091.94
2022-08-05T11:40:00.211Z,96083.34
2022-08-05T11:42:40.272Z,96085.78
2022-08-05T11:45:23.118Z,96091.56
2022-08-05T11:47:55.862Z,96093.75
2022-08-05T11:50:25.228Z,96106.03
2022-08-05T11:52:57.541Z,96108.47
2022-08-05T11:55:31.611Z,96120.28
2022-08-05T11:58:09.615Z,96124.72
2022-08-05T12:00:41.426Z,96127.78
2022-08-05T12:03:42.665Z,96119.38
2022-08-05T12:06:25.879Z,96138.63
2022-08-05T12:08:54.784Z,96136.75
2022-08-05T12:11:40.288Z,96146.84
2022-08-05T12:14:10.280Z,96149.59
2022-08-05T12:16:39.897Z,96168.03
2022-08-05T12:19:08.786Z,96161.47
2022-08-05T12:21:50.655Z,96168.59
2022-08-05T12:24:20.159Z,96174.47
2022-08-05T12:26:52.997Z,96176.44
2022-08-05T12:29:25.187Z,96187.88
2022-08-05T12:32:01.968Z,96181.34
2022-08-05T12:34:33.590Z,96193.22
2022-08-05T12:37:10.843Z,96184.00
2022-08-05T12:39:45.262Z,96176.22
2022-08-05T12:42:20.938Z,96174.34
2022-08-05T12:44:49.085Z,96179.63
2022-08-05T12:47:30.647Z,96189.41
2022-08-05T12:50:04.782Z,96177.38
2022-08-05T12:52:38.903Z,96164.91
2022-08-05T12:55:22.174Z,96167.25
2022-08-05T12:58:38.735Z,96155.63
2022-08-05T13:02:01.800Z,96160.78
2022-08-05T13:03:38.872Z,96157.16
2022-08-05T13:06:12.849Z,96144.00
2022-08-05T13:08:41.335Z,96139.56
2022-08-05T13:11:18.179Z,96148.88
2022-08-05T13:14:10.853Z,96149.31
2022-08-05T13:17:09.368Z,96142.59
2022-08-05T13:19:40.337Z,96132.81
2022-08-05T13:22:28.484Z,96143.91
2022-08-05T13:25:00.661Z,96145.66
2022-08-05T13:27:37.510Z,96134.09
2022-08-05T13:30:35.221Z,96147.03
2022-08-05T13:33:06.369Z,96150.38
2022-08-05T13:35:47.679Z,96171.25
2022-08-05T13:38:30.482Z,96152.34
2022-08-05T13:41:01.370Z,96173.00
2022-08-05T13:43:45.924Z,96175.19
2022-08-05T13:46:18.527Z,96179.16
2022-08-05T13:49:03.983Z,96181.66
2022-08-05T13:51:40.427Z,96181.09
2022-08-05T13:54:11.969Z,96180.47
2022-08-05T13:56:45.295Z,96187.63
2022-08-05T13:59:24.177Z,96181.34
2022-08-05T14:01:58.525Z,96189.34
2022-08-05T14:04:49.500Z,96190.94
2022-08-05T14:07:56.290Z,96203.31
2022-08-05T14:10:08.743Z,96213.34
2022-08-05T14:12:36.538Z,96219.56
2022-08-05T14:15:22.075Z,96216.59
2022-08-05T14:17:51.780Z,96208.53
2022-08-05T14:20:27.302Z,96222.53
2022-08-05T14:22:54.825Z,96229.84
2022-08-05T14:25:28.193Z,96218.56
2022-08-05T14:27:58.441Z,96225.03
2022-08-05T14:30:26.713Z,96215.50
2022-08-05T14:32:56.688Z,96224.84
2022-08-05T14:35:37.136Z,96219.03
2022-08-05T14:38:33.211Z,96224.69
2022-08-05T14:40:58.755Z,96223.91
2022-08-05T14:43:58.810Z,96215.59
2022-08-05T14:46:13.163Z,96231.38
2022-08-05T14:48:40.332Z,96231.72
2022-08-05T14:51:08.385Z,96209.34
2022-08-05T14:53:44.517Z,96219.69
2022-08-05T14:56:13.310Z,96215.50
2022-08-05T14:58:47.957Z,96212.19
2022-08-05T15:01:47.018Z,96217.72
2022-08-05T15:04:11.520Z,96206.59
2022-08-05T15:06:40.524Z,96211.44
2022-08-05T15:09:07.787Z,96207.72
2022-08-05T15:11:52.921Z,96220.03
2022-08-05T15:14:35.097Z,96211.47
2022-08-05T15:17:14.550Z,96216.63
2022-08-05T15:19:56.390Z,96213.47
2022-08-05T15:22:27.079Z,96209.44
2022-08-05T15:24:56.378Z,96214.66
2022-08-05T15:27:25.620Z,96221.03
2022-08-05T15:29:56.569Z,96209.94
2022-08-05T15:32:27.459Z,96213.03
2022-08-05T15:34:57.137Z,96219.94
2022-08-05T15:38:08.752Z,96214.75
2022-08-05T15:41:02.824Z,96222.19
2022-08-05T15:43:10.861Z,96214.44
2022-08-05T15:45:47.425Z,96215.78
2022-08-05T15:48:15.098Z,96227.16
2022-08-05T15:50:43.657Z,96229.63
2022-08-05T15:53:13.859Z,96223.91
2022-08-05T15:56:04.266Z,96227.53
2022-08-05T15:58:29.688Z,96230.53
2022-08-05T16:01:04.412Z,96241.03
2022-08-05T16:03:43.241Z,96229.41
2022-08-05T16:06:11.393Z,96240.84
2022-08-05T16:08:39.057Z,96247.00
2022-08-05T16:11:10.204Z,96249.38
2022-08-05T16:13:37.671Z,96242.63
2022-08-05T16:16:05.306Z,96238.44
2022-08-05T16:18:33.147Z,96245.25
2022-08-05T16:21:04.169Z,96242.13
2022-08-05T16:23:53.531Z,96242.28
2022-08-05T16:26:26.509Z,96244.47
2022-08-05T16:28:55.071Z,96253.56
2022-08-05T16:31:22.536Z,96254.50
2022-08-05T16:33:52.120Z,96264.31
2022-08-05T16:36:23.731Z,96273.69
2022-08-05T16:38:54.727Z,96268.59
2022-08-05T16:42:14.655Z,96259.25
2022-08-05T16:44:12.893Z,96265.88
2022-08-05T16:46:41.390Z,96268.38
2022-08-05T16:49:23.764Z,96258.63
2022-08-05T16:51:54.750Z,96269.69
2022-08-05T16:54:27.523Z,96276.09
2022-08-05T16:56:59.165Z,96287.47
2022-08-05T16:59:27.818Z,96269.63
2022-08-05T17:01:57.980Z,96283.88
2022-08-05T17:04:27.802Z,96283.47
2022-08-05T17:07:03.243Z,96287.00
2022-08-05T17:09:57.181Z,96279.50
2022-08-05T17:12:18.252Z,96280.88
2022-08-05T17:14:49.998Z,96277.59
2022-08-05T17:17:17.190Z,96290.59
2022-08-05T17:19:46.905Z,96290.41
2022-08-05T17:22:25.164Z,96289.91
2022-08-05T17:24:57.852Z,96286.78
2022-08-05T17:27:33.867Z,96284.03
2022-08-05T17:30:03.929Z,96286.69
2022-08-05T17:32:32.146Z,96296.72
2022-08-05T17:35:01.471Z,96308.47
2022-08-05T17:37:40.744Z,96302.50
2022-08-05T17:40:14.835Z,96301.25
2022-08-05T17:42:50.469Z,96307.78
2022-08-05T17:45:21.825Z,96305.28
2022-08-05T17:47:54.511Z,96302.44
2022-08-05T17:50:28.808Z,96312.25
2022-08-05T17:52:59.068Z,96307.41
2022-08-05T17:55:37.588Z,96311.28
2022-08-05T17:58:12.845Z,96321.94
2022-08-05T18:00:47.450Z,96326.94
2022-08-05T18:03:39.179Z,96314.22
2022-08-05T18:06:10.898Z,96325.84
2022-08-05T18:08:38.856Z,96320.13
2022-08-05T18:11:11.675Z,96334.00
2022-08-05T18:13:52.357Z,96342.50
2022-08-05T18:16:20.507Z,96337.00
2022-08-05T18:18:49.809Z,96343.97
2022-08-05T18:21:20.004Z,96354.25
2022-08-05T18:23:53.866Z,96352.59
2022-08-05T18:26:27.772Z,96360.19
2022-08-05T18:28:57.641Z,96369.34
2022-08-05T18:31:25.005Z,96375.38
2022-08-05T18:33:52.670Z,96376.84
2022-08-05T18:36:19.871Z,96382.66
2022-08-05T18:38:55.673Z,96383.53
2022-08-05T18:41:58.088Z,96386.63
2022-08-05T18:44:10.762Z,96395.38
2022-08-05T18:46:41.062Z,96402.19
2022-08-05T18:49:30.771Z,96402.69
2022-08-05T18:52:32.770Z,96412.22
2022-08-05T18:55:02.240Z,96411.88
2022-08-05T18:57:43.051Z,96401.31
2022-08-05T19:00:20.618Z,96413.75
2022-08-05T19:02:48.247Z,96417.09
2022-08-05T19:06:11.444Z,96419.59
2022-08-05T19:08:06.977Z,96425.53
2022-08-05T19:10:40.940Z,96426.03
2022-08-05T19:13:12.320Z,96438.25
2022-08-05T19:15:58.927Z,96444.75
2022-08-05T19:18:31.467Z,96449.22
2022-08-05T19:20:59.609Z,96447.25
2022-08-05T19:24:05.321Z,96450.66
2022-08-05T19:26:16.438Z,96461.59
2022-08-05T19:28:43.702Z,96464.13
2022-08-05T19:31:13.141Z,96466.31
2022-08-05T19:33:48.169Z,96473.41
2022-08-05T19:36:29.238Z,96464.06
2022-08-05T19:39:00.616Z,96476.97
2022-08-05T19:42:05.590Z,96483.31
2022-08-05T19:44:18.684Z,96476.63
2022-08-05T19:46:46.095Z,96492.38
2022-08-05T19:49:17.072Z,96492.00
2022-08-05T19:52:09.128Z,96501.56
2022-08-05T19:54:34.197Z,96507.91
2022-08-05T19:57:06.605Z,96510.38
2022-08-05T19:59:55.859Z,96507.25
2022-08-05T20:02:26.024Z,96507.25
2022-08-05T20:04:55.284Z,96508.72
2022-08-05T20:07:46.744Z,96505.53
2022-08-05T20:10:13.417Z,96527.81
2022-08-05T20:12:45.995Z,96527.69
2022-08-05T20:15:23.129Z,96525.75
2022-08-05T20:18:10.723Z,96537.13
2022-08-05T20:20:55.899Z,96540.50
2022-08-05T20:23:39.873Z,96543.78
2022-08-05T20:26:16.010Z,96550.16
2022-08-05T20:28:50.839Z,96545.09
2022-08-05T20:31:21.566Z,96552.06
2022-08-05T20:33:50.769Z,96546.41
2022-08-05T20:36:18.841Z,96551.34
2022-08-05T20:38:54.084Z,96554.47
2022-08-05T20:41:27.033Z,96557.16
2022-08-05T20:44:15.420Z,96566.44
2022-08-05T20:46:45.086Z,96566.06
2022-08-05T20:49:13.111Z,96573.38
2022-08-05T20:51:40.377Z,96574.03
2022-08-05T20:54:13.928Z,96577.34
2022-08-05T20:56:42.544Z,96585.97
2022-08-05T20:59:14.244Z,96584.41
2022-08-05T21:01:47.408Z,96594.75
2022-08-05T21:04:15.739Z,96595.47
2022-08-05T21:06:45.359Z,96605.88
2022-08-05T21:09:14.931Z,96607.44
2022-08-05T21:12:10.729Z,96618.97
2022-08-05T21:14:31.443Z,96625.56
2022-08-05T21:17:05.482Z,96623.06
2022-08-05T21:19:47.288Z,96629.16
2022-08-05T21:22:18.246Z,96633.31
2022-08-05T21:24:48.963Z,96629.47
2022-08-05T21:27:25.518Z,96627.66
2022-08-05T21:29:56.176Z,96625.34
2022-08-05T21:32:27.937Z,96626.13
2022-08-05T21:35:17.542Z,96622.63
2022-08-05T21:37:47.420Z,96625.16
2022-08-05T21:40:23.094Z,96617.50
2022-08-05T21:42:52.664Z,96620.38
2022-08-05T21:45:38.156Z,96622.75
2022-08-05T21:48:09.389Z,96629.66
2022-08-05T21:50:37.361Z,96631.88
2022-08-05T21:53:16.387Z,96628.13
2022-08-05T21:56:06.136Z,96631.66
2022-08-05T21:58:36.696Z,96635.88
2022-08-05T22:01:10.605Z,96636.00
2022-08-05T22:03:52.580Z,96630.91
2022-08-05T22:06:22.496Z,96635.41
2022-08-05T22:08:52.485Z,96624.38
2022-08-05T22:11:34.877Z,96629.19
2022-08-05T22:14:06.050Z,96640.63
2022-08-05T22:16:53.180Z,96647.88
2022-08-05T22:20:00.423Z,96640.00
2022-08-05T22:22:12.251Z,96646.50
2022-08-05T22:25:00.094Z,96648.22
2022-08-05T22:28:09.915Z,96647.22
2022-08-05T22:30:37.369Z,96647.06
2022-08-05T22:33:57.282Z,96638.69
2022-08-05T22:36:08.123Z,96634.81
2022-08-05T22:38:37.242Z,96638.41
2022-08-05T22:41:09.472Z,96652.34
2022-08-05T22:43:38.022Z,96649.88
2022-08-05T22:46:13.305Z,96646.06
2022-08-05T22:48:50.518Z,96642.88
2022-08-05T22:51:23.333Z,96641.00
2022-08-05T22:53:57.228Z,96652.41
2022-08-05T22:56:30.409Z,96653.22
2022-08-05T22:59:04.054Z,96665.78
2022-08-05T23:02:04.147Z,96663.00
2022-08-05T23:04:33.527Z,96663.81
2022-08-05T23:07:00.714Z,96653.88
2022-08-05T23:09:58.335Z,96660.97
2022-08-05T23:12:17.680Z,96668.00
2022-08-05T23:14:44.987Z,96671.28
2022-08-05T23:17:34.514Z,96681.50
2022-08-05T23:20:17.447Z,96687.16
2022-08-05T23:22:48.585Z,96691.53
2022-08-05T23:25:53.572Z,96691.88
2022-08-05T23:28:07.032Z,96689.63
2022-08-05T23:30:40.499Z,96691.22
2022-08-05T23:33:16.406Z,96695.13
2022-08-05T23:35:50.637Z,96695.06
2022-08-05T23:38:18.288Z,96692.69
2022-08-05T23:40:49.836Z,96700.38
2022-08-05T23:43:25.648Z,96694.50
2022-08-05T23:46:19.936Z,96692.50
2022-08-05T23:48:59.794Z,96687.44
2022-08-05T23:51:53.785Z,96690.19
2022-08-05T23:54:25.797Z,96685.06
2022-08-05T23:56:55.389Z,96690.97
2022-08-05T23:59:27.765Z,96689.00
